createdAt,value
2018-09-03T00:00:24.985Z,92.98
2018-09-03T00:02:52.490Z,93.25
2018-09-03T00:05:20.006Z,93.10
2018-09-03T00:07:47.594Z,92.83
2018-09-03T00:10:15.123Z,92.94
2018-09-03T00:12:42.667Z,92.96
2018-09-03T00:15:10.221Z,92.46
2018-09-03T00:17:37.835Z,92.55
2018-09-03T00:20:06.683Z,92.54
2018-09-03T00:22:34.234Z,92.79
2018-09-03T00:25:01.735Z,92.71
2018-09-03T00:27:29.283Z,92.38
2018-09-03T00:29:56.848Z,92.30
2018-09-03T00:32:30.166Z,92.58
2018-09-03T00:35:03.395Z,92.61
2018-09-03T00:37:36.659Z,91.93
2018-09-03T00:40:10.213Z,92.23
2018-09-03T00:42:43.470Z,92.45
2018-09-03T00:46:20.554Z,92.87
2018-09-03T00:48:48.130Z,92.74
2018-09-03T00:51:15.682Z,93.13
2018-09-03T00:53:43.250Z,93.14
2018-09-03T00:56:10.789Z,93.27
2018-09-03T00:58:38.307Z,93.04
2018-09-03T01:01:05.854Z,93.47
2018-09-03T01:03:33.371Z,92.94
2018-09-03T01:06:01.243Z,92.33
2018-09-03T01:08:28.773Z,92.42
2018-09-03T01:10:56.301Z,91.97
2018-09-03T01:13:23.841Z,91.35
2018-09-03T01:15:51.349Z,92.01
2018-09-03T01:18:18.894Z,91.38
2018-09-03T01:20:47.306Z,91.75
2018-09-03T01:23:14.851Z,91.04
2018-09-03T01:25:42.369Z,91.50
2018-09-03T01:28:09.908Z,91.52
2018-09-03T01:30:37.422Z,91.87
2018-09-03T01:33:04.982Z,91.95
2018-09-03T01:35:32.498Z,91.94
2018-09-03T01:38:00.533Z,92.24
2018-09-03T01:40:28.111Z,92.54
2018-09-03T01:42:55.638Z,91.81
2018-09-03T01:45:23.171Z,92.26
2018-09-03T01:47:50.758Z,92.00
2018-09-03T01:50:18.298Z,91.82
2018-09-03T01:52:45.824Z,91.03
2018-09-03T01:55:13.333Z,91.15
2018-09-03T01:57:40.932Z,90.97
2018-09-03T02:00:08.493Z,90.33
2018-09-03T02:02:36.014Z,90.67
2018-09-03T02:05:03.632Z,90.78
2018-09-03T02:07:31.154Z,90.55
2018-09-03T02:09:58.702Z,90.28
2018-09-03T02:12:26.246Z,90.81
2018-09-03T02:14:53.771Z,90.36
2018-09-03T02:17:21.390Z,89.23
2018-09-03T02:19:48.934Z,88.62
2018-09-03T02:22:16.471Z,87.95
2018-09-03T02:24:43.990Z,87.59
2018-09-03T02:27:11.507Z,87.14
2018-09-03T02:29:39.098Z,87.30
2018-09-03T02:32:06.676Z,87.68
2018-09-03T02:34:34.222Z,87.29
2018-09-03T02:37:01.754Z,86.96
2018-09-03T02:39:29.254Z,87.38
2018-09-03T02:41:58.003Z,87.94
2018-09-03T02:44:25.521Z,88.66
2018-09-03T02:46:53.141Z,89.07
2018-09-03T02:49:20.706Z,88.82
2018-09-03T02:51:48.222Z,88.97
2018-09-03T02:54:15.774Z,88.89
2018-09-03T02:56:43.285Z,88.76
2018-09-03T02:59:10.965Z,89.07
2018-09-03T03:01:38.471Z,88.63
2018-09-03T03:04:06.067Z,89.26
2018-09-03T03:06:33.605Z,89.53
2018-09-03T03:09:01.154Z,89.62
2018-09-03T03:11:28.692Z,89.45
2018-09-03T03:13:56.239Z,89.64
2018-09-03T03:16:23.807Z,89.65
2018-09-03T03:18:52.531Z,89.20
2018-09-03T03:21:20.046Z,89.44
2018-09-03T03:23:47.626Z,89.97
2018-09-03T03:26:15.158Z,89.99
2018-09-03T03:28:42.667Z,88.79
2018-09-03T03:31:10.195Z,88.09
2018-09-03T03:33:37.736Z,87.28
2018-09-03T03:36:05.250Z,87.95
2018-09-03T03:38:32.790Z,88.80
2018-09-03T03:41:00.306Z,88.21
2018-09-03T03:43:27.848Z,88.54
2018-09-03T03:45:55.367Z,88.60
2018-09-03T03:48:22.917Z,87.84
2018-09-03T03:50:50.775Z,86.23
2018-09-03T03:53:18.290Z,86.10
2018-09-03T03:55:45.818Z,87.80
2018-09-03T03:58:13.352Z,88.00
2018-09-03T04:00:40.877Z,86.89
2018-09-03T04:03:08.462Z,86.85
2018-09-03T04:05:35.998Z,86.85
2018-09-03T04:08:03.567Z,86.94
2018-09-03T04:10:31.082Z,86.93
2018-09-03T04:13:04.137Z,87.05
2018-09-03T04:15:31.798Z,87.24
2018-09-03T04:17:59.639Z,87.33
2018-09-03T04:20:27.222Z,87.29
2018-09-03T04:22:54.818Z,87.33
2018-09-03T04:25:22.282Z,87.64
2018-09-03T04:27:49.815Z,87.92
2018-09-03T04:30:17.790Z,88.08
2018-09-03T04:32:45.328Z,88.83
2018-09-03T04:35:12.898Z,88.25
2018-09-03T04:37:40.443Z,88.54
2018-09-03T04:40:08.002Z,88.69
2018-09-03T04:42:35.542Z,88.61
2018-09-03T04:45:03.423Z,87.55
2018-09-03T04:47:31.912Z,85.70
2018-09-03T04:49:59.429Z,85.37
2018-09-03T04:52:26.987Z,86.16
2018-09-03T04:54:54.494Z,86.18
2018-09-03T04:57:22.156Z,85.89
2018-09-03T04:59:49.758Z,86.50
2018-09-03T05:02:17.298Z,87.01
2018-09-03T05:04:44.862Z,86.66
2018-09-03T05:07:12.479Z,86.20
2018-09-03T05:09:40.118Z,87.56
2018-09-03T05:12:07.878Z,86.91
2018-09-03T05:14:35.527Z,87.74
2018-09-03T05:17:03.217Z,87.56
2018-09-03T05:19:30.729Z,87.30
2018-09-03T05:21:58.267Z,87.08
2018-09-03T05:24:25.824Z,87.28
2018-09-03T05:26:53.454Z,87.05
2018-09-03T05:29:21.127Z,87.40
2018-09-03T05:31:48.637Z,87.32
2018-09-03T05:34:16.159Z,88.15
2018-09-03T05:36:44.010Z,87.11
2018-09-03T05:39:12.458Z,86.74
2018-09-03T05:41:40.346Z,87.03
2018-09-03T05:44:08.478Z,86.58
2018-09-03T05:46:36.479Z,86.57
2018-09-03T05:49:04.156Z,87.10
2018-09-03T05:51:31.799Z,86.50
2018-09-03T05:53:59.354Z,86.51
2018-09-03T05:56:26.904Z,85.41
2018-09-03T05:58:54.426Z,85.93
2018-09-03T06:01:21.961Z,86.27
2018-09-03T06:03:49.530Z,86.26
2018-09-03T06:06:17.089Z,84.61
2018-09-03T06:08:44.631Z,85.09
2018-09-03T06:11:12.201Z,85.51
2018-09-03T06:13:39.753Z,86.07
2018-09-03T06:16:07.330Z,84.10
2018-09-03T06:18:34.879Z,84.09
2018-09-03T06:21:02.450Z,84.05
2018-09-03T06:23:29.973Z,83.65
2018-09-03T06:25:57.510Z,84.15
2018-09-03T06:28:25.021Z,83.85
2018-09-03T06:30:52.567Z,84.71
2018-09-03T06:33:20.155Z,85.54
2018-09-03T06:35:47.714Z,84.99
2018-09-03T06:38:15.273Z,85.19
2018-09-03T06:40:42.799Z,84.38
2018-09-03T06:43:10.381Z,84.04
2018-09-03T06:45:37.897Z,85.28
2018-09-03T06:48:05.438Z,85.84
2018-09-03T06:50:32.962Z,85.80
2018-09-03T06:53:00.481Z,85.01
2018-09-03T06:55:28.028Z,85.07
2018-09-03T06:57:55.553Z,83.76
2018-09-03T07:00:23.165Z,84.28
2018-09-03T07:02:50.740Z,84.19
2018-09-03T07:05:18.256Z,84.44
2018-09-03T07:07:45.790Z,82.91
2018-09-03T07:10:13.329Z,82.86
2018-09-03T07:12:41.678Z,82.84
2018-09-03T07:15:09.194Z,83.47
2018-09-03T07:17:36.749Z,83.86
2018-09-03T07:20:04.399Z,83.27
2018-09-03T07:22:32.085Z,83.62
2018-09-03T07:24:59.682Z,83.48
2018-09-03T07:27:27.560Z,83.23
2018-09-03T07:29:55.153Z,83.58
2018-09-03T07:32:22.673Z,82.84
2018-09-03T07:34:50.477Z,81.94
2018-09-03T07:37:18.019Z,82.45
2018-09-03T07:39:45.577Z,81.37
2018-09-03T07:42:13.127Z,81.70
2018-09-03T07:44:40.778Z,80.54
2018-09-03T07:47:08.315Z,80.46
2018-09-03T07:49:35.857Z,79.84
2018-09-03T07:52:03.428Z,80.84
2018-09-03T07:54:31.066Z,81.12
2018-09-03T07:56:58.627Z,81.16
2018-09-03T07:59:26.438Z,81.28
2018-09-03T08:01:54.005Z,81.06
2018-09-03T08:04:21.556Z,80.09
2018-09-03T08:06:49.137Z,78.76
2018-09-03T08:09:16.713Z,78.49
2018-09-03T08:11:44.319Z,77.79
2018-09-03T08:14:11.875Z,78.19
2018-09-03T08:16:39.443Z,78.49
2018-09-03T08:19:07.019Z,78.74
2018-09-03T08:21:34.654Z,78.06
2018-09-03T08:24:02.203Z,77.99
2018-09-03T08:26:29.849Z,78.26
2018-09-03T08:28:57.379Z,77.33
2018-09-03T08:31:24.926Z,75.13
2018-09-03T08:33:52.502Z,74.13
2018-09-03T08:36:20.092Z,74.63
2018-09-03T08:38:47.649Z,74.36
2018-09-03T08:41:15.230Z,75.37
2018-09-03T08:43:42.774Z,73.71
2018-09-03T08:46:10.329Z,72.09
2018-09-03T08:48:37.883Z,73.41
2018-09-03T08:51:05.449Z,73.21
2018-09-03T08:53:33.017Z,73.25
2018-09-03T08:56:00.605Z,70.53
2018-09-03T08:58:28.180Z,66.90
2018-09-03T09:00:55.731Z,66.29
2018-09-03T09:03:29.000Z,64.43
2018-09-03T09:05:56.661Z,62.51
2018-09-03T09:08:24.162Z,61.38
2018-09-03T09:10:51.720Z,62.47
2018-09-03T09:13:19.748Z,64.01
2018-09-03T09:15:47.947Z,64.32
2018-09-03T09:18:16.003Z,61.23
2018-09-03T09:20:43.542Z,60.97
2018-09-03T09:23:11.071Z,57.58
2018-09-03T09:25:38.687Z,57.53
2018-09-03T09:28:06.302Z,55.74
2018-09-03T09:30:33.882Z,54.39
2018-09-03T09:33:01.443Z,55.87
2018-09-03T09:35:29.043Z,54.71
2018-09-03T09:37:56.618Z,54.21
2018-09-03T09:40:24.237Z,55.47
2018-09-03T09:42:51.850Z,58.62
2018-09-03T09:45:19.410Z,56.61
2018-09-03T09:47:46.935Z,56.41
2018-09-03T09:50:14.500Z,55.74
2018-09-03T09:52:42.054Z,53.99
2018-09-03T09:55:09.678Z,52.11
2018-09-03T09:57:37.254Z,52.97
2018-09-03T10:00:04.879Z,51.30
2018-09-03T10:02:32.458Z,50.14
2018-09-03T10:04:59.989Z,50.39
2018-09-03T10:07:27.595Z,51.86
2018-09-03T10:09:55.140Z,52.99
2018-09-03T10:12:28.234Z,53.78
2018-09-03T10:14:55.815Z,54.83
2018-09-03T10:17:23.561Z,54.68
2018-09-03T10:19:51.094Z,55.93
2018-09-03T10:22:18.690Z,52.89
2018-09-03T10:24:46.235Z,55.34
2018-09-03T10:27:13.867Z,54.47
2018-09-03T10:29:41.623Z,55.80
2018-09-03T10:32:09.174Z,54.97
2018-09-03T10:34:36.942Z,56.24
2018-09-03T10:37:05.284Z,57.54
2018-09-03T10:39:32.820Z,57.64
2018-09-03T10:42:00.358Z,57.83
2018-09-03T10:44:27.966Z,57.79
2018-09-03T10:46:55.572Z,56.36
2018-09-03T10:49:23.130Z,55.57
2018-09-03T10:51:50.688Z,55.86
2018-09-03T10:54:18.285Z,55.17
2018-09-03T10:56:45.813Z,54.91
2018-09-03T10:59:13.335Z,51.26
2018-09-03T11:01:40.916Z,52.31
2018-09-03T11:04:08.598Z,52.53
2018-09-03T11:06:36.166Z,51.35
2018-09-03T11:09:05.235Z,50.51
2018-09-03T11:11:32.791Z,51.23
2018-09-03T11:14:00.373Z,50.34
2018-09-03T11:16:28.262Z,52.93
2018-09-03T11:18:55.810Z,53.17
2018-09-03T11:21:23.393Z,53.13
2018-09-03T11:23:50.869Z,52.79
2018-09-03T11:26:18.379Z,55.26
2018-09-03T11:28:46.012Z,56.79
2018-09-03T11:31:13.457Z,57.93
2018-09-03T11:33:40.978Z,59.31
2018-09-03T11:36:08.456Z,58.69
2018-09-03T11:38:35.992Z,58.69
2018-09-03T11:41:03.512Z,59.58
2018-09-03T11:43:31.029Z,59.45
2018-09-03T11:45:58.578Z,58.74
2018-09-03T11:48:26.097Z,57.19
2018-09-03T11:50:53.610Z,58.37
2018-09-03T11:53:21.383Z,57.66
2018-09-03T11:55:48.866Z,56.98
2018-09-03T11:58:16.419Z,56.23
2018-09-03T12:00:43.960Z,57.04
2018-09-03T12:03:12.492Z,54.96
2018-09-03T12:05:40.086Z,56.24
2018-09-03T12:08:07.586Z,55.44
2018-09-03T12:10:35.110Z,54.55
2018-09-03T12:13:02.630Z,53.08
2018-09-03T12:15:33.934Z,53.69
2018-09-03T12:18:01.509Z,54.01
2018-09-03T12:20:29.019Z,54.12
2018-09-03T12:22:56.517Z,53.38
2018-09-03T12:25:24.038Z,52.10
2018-09-03T12:27:51.554Z,52.37
2018-09-03T12:30:19.051Z,52.40
2018-09-03T12:32:46.890Z,53.26
2018-09-03T12:35:14.363Z,53.07
2018-09-03T12:37:41.887Z,55.39
2018-09-03T12:40:09.786Z,56.34
2018-09-03T12:42:37.274Z,56.21
2018-09-03T12:45:04.798Z,56.50
2018-09-03T12:47:32.318Z,55.59
2018-09-03T12:49:59.798Z,55.13
2018-09-03T12:52:27.385Z,53.94
2018-09-03T12:54:54.907Z,54.10
2018-09-03T12:57:22.690Z,53.65
2018-09-03T12:59:50.167Z,52.86
2018-09-03T13:02:17.766Z,51.70
2018-09-03T13:04:45.269Z,53.77
2018-09-03T13:07:12.806Z,53.19
2018-09-03T13:09:40.325Z,52.59
2018-09-03T13:12:07.878Z,53.21
2018-09-03T13:14:35.394Z,52.45
2018-09-03T13:17:03.019Z,52.47
2018-09-03T13:19:30.520Z,52.43
2018-09-03T13:21:58.050Z,54.06
2018-09-03T13:24:25.556Z,53.10
2018-09-03T13:26:53.313Z,53.31
2018-09-03T13:29:20.834Z,53.02
2018-09-03T13:31:48.599Z,53.51
2018-09-03T13:34:16.170Z,53.94
2018-09-03T13:36:43.639Z,54.65
2018-09-03T13:39:11.295Z,54.85
2018-09-03T13:41:38.941Z,56.21
2018-09-03T13:44:06.728Z,56.09
2018-09-03T13:46:34.239Z,58.26
2018-09-03T13:49:01.762Z,57.90
2018-09-03T13:51:29.371Z,58.56
2018-09-03T13:53:56.867Z,58.50
2018-09-03T13:56:24.364Z,58.28
2018-09-03T13:58:51.874Z,59.74
2018-09-03T14:01:19.626Z,58.36
2018-09-03T14:03:47.119Z,58.11
2018-09-03T14:06:14.717Z,57.19
2018-09-03T14:08:42.263Z,56.82
2018-09-03T14:11:09.755Z,55.71
2018-09-03T14:13:37.251Z,55.66
2018-09-03T14:16:05.093Z,55.42
2018-09-03T14:18:32.596Z,55.39
2018-09-03T14:21:00.206Z,55.50
2018-09-03T14:23:27.931Z,53.45
2018-09-03T14:25:55.422Z,53.72
2018-09-03T14:28:22.955Z,53.42
2018-09-03T14:30:50.471Z,54.52
2018-09-03T14:33:17.999Z,54.54
2018-09-03T14:35:45.490Z,54.50
2018-09-03T14:38:13.062Z,55.05
2018-09-03T14:40:40.543Z,55.38
2018-09-03T14:43:08.097Z,55.22
2018-09-03T14:45:35.611Z,55.44
2018-09-03T14:48:03.211Z,54.64
2018-09-03T14:50:30.787Z,54.96
2018-09-03T14:52:58.477Z,55.65
2018-09-03T14:55:25.966Z,55.97
2018-09-03T14:57:53.621Z,55.02
2018-09-03T15:00:21.138Z,55.08
2018-09-03T15:02:48.637Z,54.93
2018-09-03T15:05:16.191Z,55.16
2018-09-03T15:07:43.701Z,56.87
2018-09-03T15:10:11.307Z,57.90
2018-09-03T15:12:38.889Z,57.40
2018-09-03T15:15:06.722Z,57.55
2018-09-03T15:17:34.162Z,58.37
2018-09-03T15:20:01.638Z,57.54
2018-09-03T15:22:29.153Z,58.37
2018-09-03T15:24:56.666Z,58.46
2018-09-03T15:27:24.166Z,59.62
2018-09-03T15:29:51.691Z,58.49
2018-09-03T15:32:19.266Z,58.76
2018-09-03T15:34:46.770Z,58.58
2018-09-03T15:37:14.287Z,59.01
2018-09-03T15:39:42.110Z,58.96
2018-09-03T15:42:09.654Z,59.12
2018-09-03T15:44:37.132Z,58.07
2018-09-03T15:47:04.702Z,57.92
2018-09-03T15:49:32.219Z,58.76
2018-09-03T15:51:59.759Z,58.00
2018-09-03T15:54:27.282Z,58.46
2018-09-03T15:56:55.818Z,58.84
2018-09-03T15:59:23.340Z,59.63
2018-09-03T16:01:50.869Z,59.39
2018-09-03T16:04:18.361Z,58.21
2018-09-03T16:06:45.873Z,59.24
2018-09-03T16:09:13.457Z,59.96
2018-09-03T16:11:41.622Z,59.12
2018-09-03T16:14:09.293Z,59.73
2018-09-03T16:16:37.035Z,59.26
2018-09-03T16:19:04.659Z,59.23
2018-09-03T16:21:32.212Z,57.93
2018-09-03T16:23:59.749Z,58.22
2018-09-03T16:26:27.331Z,59.48
2018-09-03T16:28:54.849Z,59.29
2018-09-03T16:31:22.500Z,60.01
2018-09-03T16:33:50.075Z,58.78
2018-09-03T16:36:17.601Z,60.54
2018-09-03T16:38:45.115Z,60.15
2018-09-03T16:41:12.920Z,60.39
2018-09-03T16:43:40.421Z,60.64
2018-09-03T16:46:07.938Z,61.78
2018-09-03T16:48:35.460Z,62.04
2018-09-03T16:51:03.046Z,61.98
2018-09-03T16:53:30.545Z,62.03
2018-09-03T16:55:58.076Z,61.75
2018-09-03T16:58:25.567Z,61.34
2018-09-03T17:00:53.084Z,62.63
2018-09-03T17:03:20.581Z,62.64
2018-09-03T17:05:48.070Z,62.09
2018-09-03T17:08:15.703Z,61.69
2018-09-03T17:10:43.202Z,62.90
2018-09-03T17:13:10.767Z,62.09
2018-09-03T17:15:38.321Z,62.62
2018-09-03T17:18:05.864Z,63.14
2018-09-03T17:20:33.514Z,63.52
2018-09-03T17:23:01.345Z,63.28
2018-09-03T17:25:28.896Z,63.67
2018-09-03T17:27:56.451Z,63.86
2018-09-03T17:30:24.829Z,64.13
2018-09-03T17:32:52.330Z,64.55
2018-09-03T17:35:19.814Z,65.39
2018-09-03T17:37:47.450Z,64.74
2018-09-03T17:40:15.008Z,64.40
2018-09-03T17:42:42.573Z,65.12
2018-09-03T17:45:10.151Z,65.33
2018-09-03T17:47:39.339Z,65.21
2018-09-03T17:50:06.847Z,65.84
2018-09-03T17:52:34.358Z,66.33
2018-09-03T17:55:01.903Z,66.05
2018-09-03T17:57:29.401Z,66.64
2018-09-03T17:59:56.891Z,66.80
2018-09-03T18:02:24.435Z,67.64
2018-09-03T18:04:51.984Z,68.65
2018-09-03T18:07:20.240Z,67.45
2018-09-03T18:09:47.910Z,67.04
2018-09-03T18:12:16.424Z,67.41
2018-09-03T18:14:43.907Z,67.56
2018-09-03T18:17:11.453Z,68.30
2018-09-03T18:19:39.002Z,68.39
2018-09-03T18:22:06.497Z,69.42
2018-09-03T18:24:34.005Z,69.86
2018-09-03T18:27:01.523Z,70.50
2018-09-03T18:29:29.046Z,70.61
2018-09-03T18:31:56.555Z,71.66
2018-09-03T18:34:24.206Z,72.13
2018-09-03T18:36:51.962Z,72.85
2018-09-03T18:39:19.487Z,72.51
2018-09-03T18:41:47.022Z,72.01
2018-09-03T18:44:14.558Z,72.29
2018-09-03T18:46:42.078Z,72.33
2018-09-03T18:49:09.655Z,72.05
2018-09-03T18:51:37.323Z,72.65
2018-09-03T18:54:04.880Z,73.00
2018-09-03T18:56:32.487Z,72.46
2018-09-03T18:59:00.064Z,72.23
2018-09-03T19:01:27.614Z,72.49
2018-09-03T19:03:55.162Z,72.64
2018-09-03T19:06:22.745Z,71.93
2018-09-03T19:08:50.217Z,72.28
2018-09-03T19:11:17.738Z,71.65
2018-09-03T19:13:45.258Z,71.84
2018-09-03T19:16:13.052Z,71.35
2018-09-03T19:18:40.707Z,71.84
2018-09-03T19:21:08.255Z,71.57
2018-09-03T19:23:35.787Z,71.95
2018-09-03T19:26:03.435Z,72.43
2018-09-03T19:28:30.948Z,73.25
2018-09-03T19:30:58.570Z,74.12
2018-09-03T19:33:26.239Z,74.53
2018-09-03T19:35:53.797Z,74.50
2018-09-03T19:38:21.327Z,73.99
2018-09-03T19:40:48.910Z,74.56
2018-09-03T19:43:17.134Z,75.27
2018-09-03T19:45:44.658Z,75.57
2018-09-03T19:48:12.198Z,74.73
2018-09-03T19:50:39.778Z,74.65
2018-09-03T19:53:07.325Z,73.96
2018-09-03T19:55:34.905Z,73.28
2018-09-03T19:58:02.484Z,73.41
2018-09-03T20:00:30.073Z,74.67
2018-09-03T20:02:57.692Z,74.16
2018-09-03T20:05:25.243Z,74.67
2018-09-03T20:07:52.792Z,75.15
2018-09-03T20:10:20.691Z,74.79
2018-09-03T20:12:48.247Z,76.40
2018-09-03T20:15:21.316Z,75.95
2018-09-03T20:17:48.841Z,76.30
2018-09-03T20:20:16.334Z,76.42
2018-09-03T20:22:43.924Z,76.62
2018-09-03T20:25:11.416Z,76.52
2018-09-03T20:27:38.975Z,76.21
2018-09-03T20:30:06.619Z,76.03
2018-09-03T20:32:34.134Z,76.65
2018-09-03T20:35:01.899Z,75.96
2018-09-03T20:37:29.393Z,75.17
2018-09-03T20:39:56.887Z,75.98
2018-09-03T20:42:24.411Z,76.37
2018-09-03T20:44:51.980Z,76.83
2018-09-03T20:47:19.483Z,76.40
2018-09-03T20:49:47.049Z,76.84
2018-09-03T20:52:14.552Z,76.67
2018-09-03T20:54:42.076Z,77.09
2018-09-03T20:57:09.809Z,77.08
2018-09-03T20:59:37.327Z,77.01
2018-09-03T21:02:05.081Z,76.73
2018-09-03T21:04:32.934Z,77.27
2018-09-03T21:07:00.510Z,77.37
2018-09-03T21:09:28.055Z,77.77
2018-09-03T21:11:55.671Z,77.73
2018-09-03T21:14:23.285Z,78.33
2018-09-03T21:16:50.794Z,79.12
2018-09-03T21:19:18.299Z,78.55
2018-09-03T21:21:45.875Z,78.39
2018-09-03T21:24:13.402Z,78.26
2018-09-03T21:26:40.975Z,78.62
2018-09-03T21:29:08.485Z,78.98
2018-09-03T21:31:36.028Z,79.41
2018-09-03T21:34:03.807Z,79.83
2018-09-03T21:36:31.324Z,79.91
2018-09-03T21:38:59.463Z,79.45
2018-09-03T21:41:27.014Z,80.00
2018-09-03T21:43:54.494Z,79.77
2018-09-03T21:46:22.029Z,79.86
2018-09-03T21:48:49.574Z,80.30
2018-09-03T21:51:17.086Z,79.07
2018-09-03T21:53:44.598Z,78.79
2018-09-03T21:56:12.106Z,78.41
2018-09-03T21:58:39.612Z,78.79
2018-09-03T22:01:07.385Z,78.61
2018-09-03T22:03:34.898Z,78.49
2018-09-03T22:06:02.387Z,78.82
2018-09-03T22:08:29.993Z,79.29
2018-09-03T22:10:57.730Z,79.53
2018-09-03T22:13:25.235Z,77.99
2018-09-03T22:15:52.791Z,77.52
2018-09-03T22:18:20.339Z,78.69
2018-09-03T22:20:49.013Z,79.33
2018-09-03T22:23:16.547Z,79.57
2018-09-03T22:25:44.101Z,79.90
2018-09-03T22:28:11.667Z,80.62
2018-09-03T22:30:39.256Z,80.48
2018-09-03T22:33:06.785Z,80.99
2018-09-03T22:35:34.370Z,80.16
2018-09-03T22:38:01.857Z,80.18
2018-09-03T22:40:29.371Z,80.77
2018-09-03T22:42:56.918Z,80.04
2018-09-03T22:45:24.486Z,79.52
2018-09-03T22:47:52.098Z,80.23
2018-09-03T22:50:19.662Z,79.71
2018-09-03T22:52:47.194Z,80.91
2018-09-03T22:55:14.751Z,81.07
2018-09-03T22:57:42.306Z,81.27
2018-09-03T23:00:09.881Z,81.55
2018-09-03T23:02:43.073Z,82.22
2018-09-03T23:05:11.462Z,82.67
2018-09-03T23:07:39.262Z,82.81
2018-09-03T23:10:07.695Z,82.79
2018-09-03T23:12:35.339Z,83.37
2018-09-03T23:15:02.967Z,83.13
2018-09-03T23:17:30.491Z,82.58
2018-09-03T23:19:58.085Z,82.70
2018-09-03T23:22:25.658Z,82.87
2018-09-03T23:24:53.594Z,83.25
2018-09-03T23:27:21.108Z,83.83
2018-09-03T23:29:48.643Z,83.84
2018-09-03T23:32:16.182Z,83.22
2018-09-03T23:34:43.713Z,82.71
2018-09-03T23:37:11.254Z,82.87
2018-09-03T23:39:38.766Z,82.23
2018-09-03T23:42:06.351Z,82.89
2018-09-03T23:44:34.001Z,82.75
2018-09-03T23:47:01.534Z,82.61
2018-09-03T23:49:29.423Z,83.17
2018-09-03T23:51:56.973Z,82.80
2018-09-03T23:54:24.599Z,83.23
2018-09-03T23:56:52.159Z,83.19
2018-09-03T23:59:19.675Z,82.29
